Disclaimer

Please do not use the information listed here in-flight or in-navigation, as they are not provided to us by the airports but are provided by volunteers, so they might be outdated.

Search


Regions


Airport information page

Radio informations:
Tower (TWR) - 118.7 MHz
RDO - 5680 MHz

Airport informations:
Latitude: 12° 33' 20.22" N
Longitude: 016° 16' 54.42" W
Elevation: 75 feet - 23 meters
Operating hours: Remarks
Operating agency: Civil government, landing fees and diplomatic clearance may be required
Timezone: UTC 0
Fuel: N/A

Runway information:
10/28 - 5069 x 98 feet< - >1545 x 30 meters

Recent METARs:
GOGG 162100Z VRB02KT CAVOK 26/23 Q1013
GOGG 162300Z VRB02KT CAVOK 25/22 Q1014
GOGG 162300Z VRB02KT CAVOK 25/22 Q1014

Airport on the map: